Time;durP1;ratioP1;P1;durP2;ratioP2;P2;SDS_P1;SDS_P2;PMS_P1;PMS_P2;Temp;Humidity;BMP_temperature;BMP_pressure;BME280_temperature;BME280_humidity;BME280_pressure;Samples;Min_cycle;Max_cycle;Signal;HPM_P1;HPM_P2
2024/02/07 00:01:13;;;;;;;4.88;0.80;;;;;;;;;;4996326;28;20050;-76
2024/02/07 00:03:39;;;;;;;4.15;0.90;;;;;;;;;;4993435;28;20519;-76
2024/02/07 00:06:06;;;;;;;3.70;0.80;;;;;;;;;;5005832;28;20053;-75
2024/02/07 00:08:32;;;;;;;3.95;0.82;;;;;;;;;;4990416;28;20042;-76
2024/02/07 00:10:59;;;;;;;4.22;0.88;;;;;;;;;;4989733;28;20233;-76
2024/02/07 00:13:25;;;;;;;4.32;0.70;;;;;;;;;;4985290;28;20061;-77
2024/02/07 00:15:52;;;;;;;3.65;0.90;;;;;;;;;;4994478;28;20042;-76
2024/02/07 00:18:19;;;;;;;3.10;0.70;;;;;;;;;;4990274;28;20054;-76
2024/02/07 00:20:46;;;;;;;4.22;0.80;;;;;;;;;;4984292;28;20049;-77
2024/02/07 00:23:12;;;;;;;4.07;0.73;;;;;;;;;;4993287;28;20123;-77
2024/02/07 00:25:38;;;;;;;7.60;1.30;;;;;;;;;;5000074;28;20467;-76
2024/02/07 00:28:06;;;;;;;1.92;0.57;;;;;;;;;;5004287;28;20053;-76
2024/02/07 00:30:32;;;;;;;4.15;0.80;;;;;;;;;;5003354;28;20136;-77
2024/02/07 00:33:05;;;;;;;2.92;0.80;;;;;;;;;;5005856;28;20049;-76
2024/02/07 00:35:32;;;;;;;4.10;0.82;;;;;;;;;;5006422;28;20050;-77
2024/02/07 00:37:58;;;;;;;4.22;0.80;;;;;;;;;;4999210;28;20049;-76
2024/02/07 00:40:25;;;;;;;5.35;0.75;;;;;;;;;;4996785;28;20673;-76
2024/02/07 00:42:52;;;;;;;7.35;0.95;;;;;;;;;;5001178;28;20046;-75
2024/02/07 00:45:18;;;;;;;1.90;0.60;;;;;;;;;;4993228;28;20054;-75
2024/02/07 00:47:46;;;;;;;2.75;0.57;;;;;;;;;;4999746;28;20046;-75
2024/02/07 00:50:12;;;;;;;3.83;0.60;;;;;;;;;;4984219;28;20047;-74
2024/02/07 00:52:39;;;;;;;4.22;0.60;;;;;;;;;;5008823;28;20042;-75
2024/02/07 00:55:06;;;;;;;4.25;0.90;;;;;;;;;;4984486;28;20765;-75
2024/02/07 00:57:32;;;;;;;2.92;1.00;;;;;;;;;;4990260;28;20137;-74
2024/02/07 00:59:59;;;;;;;4.03;0.77;;;;;;;;;;5001033;28;20656;-75
2024/02/07 01:02:25;;;;;;;3.20;0.80;;;;;;;;;;4977705;28;20061;-75
2024/02/07 01:04:52;;;;;;;4.15;0.77;;;;;;;;;;5004920;28;20129;-74
2024/02/07 01:07:18;;;;;;;5.03;1.30;;;;;;;;;;5003544;28;20882;-73
2024/02/07 01:09:45;;;;;;;2.42;0.73;;;;;;;;;;4989250;28;20482;-75
2024/02/07 01:12:11;;;;;;;5.15;0.82;;;;;;;;;;4997634;28;20745;-75
2024/02/07 01:14:38;;;;;;;3.88;0.77;;;;;;;;;;4999601;28;20054;-74
2024/02/07 01:17:05;;;;;;;5.18;0.90;;;;;;;;;;4990811;28;20050;-75
2024/02/07 01:19:31;;;;;;;7.45;0.90;;;;;;;;;;4983430;28;20559;-74
2024/02/07 01:21:58;;;;;;;6.05;1.00;;;;;;;;;;5005306;28;20058;-74
2024/02/07 01:24:24;;;;;;;10.10;1.40;;;;;;;;;;5007129;28;20050;-74
2024/02/07 01:26:51;;;;;;;5.80;1.02;;;;;;;;;;5005477;28;20049;-74
2024/02/07 01:29:17;;;;;;;4.68;1.15;;;;;;;;;;4999026;28;20053;-74
2024/02/07 01:31:43;;;;;;;2.10;0.63;;;;;;;;;;4990918;28;20049;-74
2024/02/07 01:34:10;;;;;;;5.10;1.15;;;;;;;;;;4999855;28;20411;-74
2024/02/07 01:36:44;;;;;;;5.63;1.45;;;;;;;;;;5003086;28;20474;-74
2024/02/07 01:39:11;;;;;;;4.53;1.05;;;;;;;;;;4999587;28;20101;-74
2024/02/07 01:44:23;;;;;;;8.13;0.90;;;;;;;;;;5005141;28;20108;-74
2024/02/07 01:46:51;;;;;;;4.68;1.50;;;;;;;;;;4988589;28;20443;-74
2024/02/07 01:49:21;;;;;;;3.80;0.70;;;;;;;;;;4989549;28;20049;-74
2024/02/07 01:51:48;;;;;;;5.40;1.42;;;;;;;;;;4989641;28;20781;-74
2024/02/07 01:54:15;;;;;;;5.22;0.85;;;;;;;;;;5004393;28;20057;-75
2024/02/07 01:56:41;;;;;;;5.45;0.90;;;;;;;;;;5006794;28;20706;-75
2024/02/07 01:59:08;;;;;;;4.32;0.98;;;;;;;;;;5002836;28;20116;-74
2024/02/07 02:01:35;;;;;;;2.97;0.70;;;;;;;;;;5002933;28;20053;-74
2024/02/07 02:04:02;;;;;;;4.13;0.82;;;;;;;;;;5002550;28;20042;-74
2024/02/07 02:06:29;;;;;;;4.57;0.95;;;;;;;;;;4996231;28;20570;-75
2024/02/07 02:08:56;;;;;;;5.20;0.85;;;;;;;;;;5006914;28;20050;-75
2024/02/07 02:11:26;;;;;;;6.32;1.10;;;;;;;;;;4992727;28;20104;-74
2024/02/07 02:13:53;;;;;;;4.50;0.65;;;;;;;;;;4979488;28;20061;-74
2024/02/07 02:16:21;;;;;;;8.85;1.65;;;;;;;;;;5010165;28;20049;-74
2024/02/07 02:18:48;;;;;;;4.90;0.90;;;;;;;;;;5002151;28;20082;-74
2024/02/07 02:21:21;;;;;;;5.38;0.95;;;;;;;;;;4964902;28;20054;-74
2024/02/07 02:23:54;;;;;;;6.95;1.85;;;;;;;;;;5006252;28;20046;-74
2024/02/07 02:26:20;;;;;;;6.82;1.35;;;;;;;;;;4998380;28;20471;-74
2024/02/07 02:29:14;;;;;;;7.95;1.10;;;;;;;;;;5002537;28;20436;-74
2024/02/07 02:31:43;;;;;;;4.50;1.30;;;;;;;;;;4991694;28;20046;-74
2024/02/07 02:34:10;;;;;;;5.50;0.98;;;;;;;;;;4992303;28;20054;-74
2024/02/07 02:36:37;;;;;;;5.15;1.00;;;;;;;;;;4996294;28;20053;-76
2024/02/07 02:39:05;;;;;;;3.40;0.90;;;;;;;;;;4995081;28;20109;-74
2024/02/07 02:41:32;;;;;;;5.72;0.90;;;;;;;;;;5006657;28;20539;-74
2024/02/07 02:43:59;;;;;;;6.75;1.25;;;;;;;;;;4989034;28;20555;-74
2024/02/07 02:46:25;;;;;;;4.82;0.90;;;;;;;;;;5009062;28;20048;-74
2024/02/07 02:48:52;;;;;;;4.55;1.17;;;;;;;;;;4981300;28;20054;-74
2024/02/07 02:51:18;;;;;;;6.80;1.17;;;;;;;;;;4998135;28;20057;-74
2024/02/07 02:53:45;;;;;;;6.40;0.82;;;;;;;;;;4993720;28;20120;-74
2024/02/07 02:56:12;;;;;;;6.35;1.25;;;;;;;;;;4995488;28;20054;-74
2024/02/07 02:58:39;;;;;;;5.82;1.08;;;;;;;;;;5005202;28;20073;-74
2024/02/07 03:01:10;;;;;;;5.20;0.82;;;;;;;;;;4989865;28;20417;-75
2024/02/07 03:03:37;;;;;;;4.82;1.10;;;;;;;;;;4996320;28;20148;-75
2024/02/07 03:06:17;;;;;;;5.30;0.98;;;;;;;;;;5003051;28;20145;-74
2024/02/07 03:08:53;;;;;;;4.53;1.00;;;;;;;;;;5006315;28;20143;-74
2024/02/07 03:11:20;;;;;;;5.25;0.73;;;;;;;;;;5002654;28;20058;-74
2024/02/07 03:13:48;;;;;;;5.78;1.20;;;;;;;;;;5007642;28;20042;-74
2024/02/07 03:16:15;;;;;;;3.15;0.70;;;;;;;;;;4991365;28;20491;-74
2024/02/07 03:18:42;;;;;;;7.55;1.40;;;;;;;;;;5003532;28;20052;-74
2024/02/07 03:21:09;;;;;;;8.05;1.02;;;;;;;;;;4991528;28;20060;-74
2024/02/07 03:23:35;;;;;;;3.20;0.70;;;;;;;;;;4988739;28;20901;-74
2024/02/07 03:26:04;;;;;;;3.83;0.63;;;;;;;;;;4990836;28;20096;-74
2024/02/07 03:28:31;;;;;;;3.90;1.00;;;;;;;;;;5008429;28;20141;-74
2024/02/07 03:30:58;;;;;;;7.13;1.02;;;;;;;;;;5001060;28;20140;-75
2024/02/07 03:33:28;;;;;;;4.00;0.70;;;;;;;;;;4991666;28;20041;-74
2024/02/07 03:35:55;;;;;;;5.55;0.93;;;;;;;;;;4999621;28;20058;-75
2024/02/07 03:38:21;;;;;;;7.32;0.90;;;;;;;;;;5007992;28;20115;-74
2024/02/07 03:40:49;;;;;;;5.75;1.30;;;;;;;;;;4998459;28;20049;-74
2024/02/07 03:43:17;;;;;;;;;;;;;;;;;;5007720;28;20053;-74
2024/02/07 03:45:44;;;;;;;7.18;1.13;;;;;;;;;;5000558;28;19975;-74
2024/02/07 03:48:13;;;;;;;6.38;0.85;;;;;;;;;;4966530;28;20155;-74
2024/02/07 03:50:40;;;;;;;6.80;1.25;;;;;;;;;;4992155;28;20878;-74
2024/02/07 03:53:07;;;;;;;4.78;0.90;;;;;;;;;;4994941;28;20514;-74
2024/02/07 03:55:37;;;;;;;7.32;1.10;;;;;;;;;;5004463;28;20042;-74
2024/02/07 03:58:07;;;;;;;5.50;0.90;;;;;;;;;;5004681;28;20055;-74
2024/02/07 04:00:34;;;;;;;4.57;0.90;;;;;;;;;;4972820;28;20046;-75
2024/02/07 04:03:01;;;;;;;5.60;1.00;;;;;;;;;;5007834;28;20400;-75
2024/02/07 04:05:27;;;;;;;10.43;1.75;;;;;;;;;;5005657;28;20356;-74
2024/02/07 04:07:54;;;;;;;6.47;1.08;;;;;;;;;;4988014;28;20050;-74
2024/02/07 04:10:23;;;;;;;7.60;1.33;;;;;;;;;;4988110;28;20054;-74
2024/02/07 05:15:52;;;;;;;3.65;0.82;;;;;;;;;;4999825;28;20038;-76
2024/02/07 05:18:19;;;;;;;5.47;0.90;;;;;;;;;;4987824;28;20045;-76
2024/02/07 05:20:49;;;;;;;5.45;1.05;;;;;;;;;;5004707;28;20065;-76
2024/02/07 05:23:19;;;;;;;8.50;1.67;;;;;;;;;;5000601;28;20053;-74
2024/02/07 05:25:47;;;;;;;8.27;1.98;;;;;;;;;;4993879;28;20080;-74
2024/02/07 05:28:15;;;;;;;10.25;1.63;;;;;;;;;;4992307;28;20054;-75
2024/02/07 05:30:41;;;;;;;9.10;1.48;;;;;;;;;;4994083;28;20074;-74
2024/02/07 05:33:08;;;;;;;5.10;0.95;;;;;;;;;;4986933;28;20109;-75
2024/02/07 05:35:34;;;;;;;9.45;1.73;;;;;;;;;;4989405;28;20112;-74
2024/02/07 05:38:02;;;;;;;6.45;1.20;;;;;;;;;;4993929;28;20057;-75
2024/02/07 05:40:28;;;;;;;6.80;1.00;;;;;;;;;;4988876;28;20056;-75
2024/02/07 05:42:55;;;;;;;5.28;0.98;;;;;;;;;;4994982;28;20054;-74
2024/02/07 05:45:21;;;;;;;6.68;1.33;;;;;;;;;;5009599;28;20061;-75
2024/02/07 05:47:48;;;;;;;6.70;1.08;;;;;;;;;;5012116;28;20046;-75
2024/02/07 05:50:15;;;;;;;7.35;1.10;;;;;;;;;;4993388;28;20108;-75
2024/02/07 05:52:42;;;;;;;4.10;1.20;;;;;;;;;;5009667;28;20045;-75
2024/02/07 05:55:08;;;;;;;5.88;1.00;;;;;;;;;;4999648;28;20057;-75
2024/02/07 05:57:35;;;;;;;7.47;1.05;;;;;;;;;;4992566;28;20041;-75
2024/02/07 06:00:05;;;;;;;6.20;1.40;;;;;;;;;;5011889;28;20045;-75
2024/02/07 06:02:32;;;;;;;8.95;1.55;;;;;;;;;;4992547;28;20045;-73
2024/02/07 06:05:03;;;;;;;4.75;1.42;;;;;;;;;;5008634;28;20050;-73
2024/02/07 06:07:30;;;;;;;7.45;1.20;;;;;;;;;;4990539;28;20058;-75
2024/02/07 06:09:58;;;;;;;8.20;1.10;;;;;;;;;;4992023;28;20423;-74
2024/02/07 06:12:24;;;;;;;8.73;1.38;;;;;;;;;;5012509;28;20073;-74
2024/02/07 06:14:51;;;;;;;4.90;0.93;;;;;;;;;;4993426;28;20046;-74
2024/02/07 06:17:18;;;;;;;6.38;1.00;;;;;;;;;;5006234;28;20074;-73
2024/02/07 06:19:45;;;;;;;9.52;1.40;;;;;;;;;;5006249;28;20137;-74
2024/02/07 06:22:12;;;;;;;8.10;1.13;;;;;;;;;;4986543;28;20463;-74
2024/02/07 06:24:38;;;;;;;6.65;1.33;;;;;;;;;;4997249;28;20057;-74
2024/02/07 06:27:05;;;;;;;4.47;1.20;;;;;;;;;;4991794;28;20108;-74
2024/02/07 06:29:31;;;;;;;11.13;1.48;;;;;;;;;;4993872;28;20349;-74
2024/02/07 06:32:01;;;;;;;5.97;1.52;;;;;;;;;;5006264;28;20486;-76
2024/02/07 06:34:31;;;;;;;10.82;1.65;;;;;;;;;;4997257;28;20404;-77
2024/02/07 06:36:59;;;;;;;9.68;1.45;;;;;;;;;;4980228;28;20561;-77
2024/02/07 06:39:26;;;;;;;10.40;1.80;;;;;;;;;;4998968;28;20118;-77
2024/02/07 06:41:52;;;;;;;10.68;1.17;;;;;;;;;;5004268;28;20104;-76
2024/02/07 06:44:18;;;;;;;5.47;1.30;;;;;;;;;;4997734;28;20045;-76
2024/02/07 06:46:45;;;;;;;8.32;1.33;;;;;;;;;;5001219;28;20137;-76
2024/02/07 06:49:11;;;;;;;7.90;1.42;;;;;;;;;;4984248;28;20712;-77
2024/02/07 06:51:39;;;;;;;8.25;1.83;;;;;;;;;;4996382;28;20046;-76
2024/02/07 06:54:05;;;;;;;7.00;1.38;;;;;;;;;;5002086;28;20052;-76
2024/02/07 06:56:32;;;;;;;5.68;1.05;;;;;;;;;;4982182;28;20681;-76
2024/02/07 06:58:59;;;;;;;7.40;1.42;;;;;;;;;;5005276;28;20096;-77
2024/02/07 07:01:27;;;;;;;8.53;1.50;;;;;;;;;;5002644;28;20045;-76
2024/02/07 07:03:55;;;;;;;9.60;1.47;;;;;;;;;;4994704;28;21045;-77
2024/02/07 07:06:21;;;;;;;4.95;1.30;;;;;;;;;;4994020;28;20054;-77
2024/02/07 07:08:48;;;;;;;8.93;1.45;;;;;;;;;;4995466;28;20054;-77
2024/02/07 07:11:14;;;;;;;9.38;1.52;;;;;;;;;;4997085;28;20050;-75
2024/02/07 07:13:41;;;;;;;5.35;1.45;;;;;;;;;;4986573;28;20129;-77
2024/02/07 07:16:07;;;;;;;3.70;1.10;;;;;;;;;;4989638;28;20064;-77
2024/02/07 07:18:33;;;;;;;12.10;1.83;;;;;;;;;;4991233;28;20050;-76
2024/02/07 07:21:00;;;;;;;7.07;1.55;;;;;;;;;;4993623;28;20546;-77
2024/02/07 07:23:26;;;;;;;9.30;1.67;;;;;;;;;;4988123;28;20058;-77
2024/02/07 07:25:53;;;;;;;15.52;1.73;;;;;;;;;;4984537;28;21022;-76
2024/02/07 07:28:19;;;;;;;9.02;1.83;;;;;;;;;;4995500;28;20049;-76
2024/02/07 07:30:46;;;;;;;9.88;1.70;;;;;;;;;;5000194;28;20066;-76
2024/02/07 07:33:13;;;;;;;8.27;1.42;;;;;;;;;;4994375;28;20205;-77
2024/02/07 07:35:39;;;;;;;4.60;1.20;;;;;;;;;;4984194;28;20050;-77
2024/02/07 07:38:08;;;;;;;10.70;1.60;;;;;;;;;;4982415;28;20136;-77
2024/02/07 07:40:37;;;;;;;11.63;2.00;;;;;;;;;;5001855;28;20050;-76
2024/02/07 07:43:04;;;;;;;5.40;1.23;;;;;;;;;;4999087;28;20546;-76
2024/02/07 07:45:30;;;;;;;6.50;1.50;;;;;;;;;;4992934;28;20058;-77
2024/02/07 07:47:57;;;;;;;6.47;1.60;;;;;;;;;;4983085;28;20168;-77
2024/02/07 07:50:24;;;;;;;9.02;1.67;;;;;;;;;;4999472;28;20672;-77
2024/02/07 07:52:50;;;;;;;8.82;1.70;;;;;;;;;;4983883;28;20385;-76
2024/02/07 07:55:17;;;;;;;7.93;1.77;;;;;;;;;;5003458;28;20046;-77
2024/02/07 07:57:43;;;;;;;9.85;1.83;;;;;;;;;;4988636;28;20061;-76
2024/02/07 08:00:10;;;;;;;8.02;1.70;;;;;;;;;;4982212;28;20057;-76
2024/02/07 08:02:36;;;;;;;10.27;2.30;;;;;;;;;;4992261;28;20062;-76
2024/02/07 08:05:03;;;;;;;11.93;3.28;;;;;;;;;;5003661;28;20093;-77
2024/02/07 08:07:29;;;;;;;13.93;3.22;;;;;;;;;;4999021;28;20046;-76
2024/02/07 08:09:56;;;;;;;9.65;2.90;;;;;;;;;;5002535;28;20049;-77
2024/02/07 08:12:22;;;;;;;9.73;2.85;;;;;;;;;;5001713;28;20674;-77
2024/02/07 08:14:48;;;;;;;12.38;2.53;;;;;;;;;;4977120;28;20514;-76
2024/02/07 08:17:18;;;;;;;15.00;2.33;;;;;;;;;;5005938;28;20074;-77
2024/02/07 08:19:46;;;;;;;8.93;2.00;;;;;;;;;;4981338;28;20042;-76
2024/02/07 08:22:13;;;;;;;10.70;2.47;;;;;;;;;;5000502;28;20812;-77
2024/02/07 08:24:39;;;;;;;10.13;1.92;;;;;;;;;;5004213;28;20050;-77
2024/02/07 08:27:06;;;;;;;5.75;1.80;;;;;;;;;;4998381;28;20046;-76
2024/02/07 08:29:32;;;;;;;7.82;1.85;;;;;;;;;;5007116;28;20041;-77
2024/02/07 08:31:59;;;;;;;8.50;1.90;;;;;;;;;;4994013;28;20146;-76
2024/02/07 08:34:27;;;;;;;9.48;2.28;;;;;;;;;;5003725;28;20054;-77
2024/02/07 08:36:54;;;;;;;5.82;1.88;;;;;;;;;;4988734;28;20109;-76
2024/02/07 08:39:21;;;;;;;10.65;2.00;;;;;;;;;;4995977;28;20054;-77
2024/02/07 08:41:47;;;;;;;9.27;2.30;;;;;;;;;;4996254;28;20046;-77
2024/02/07 08:44:13;;;;;;;6.72;1.85;;;;;;;;;;4986067;28;20405;-77
2024/02/07 08:46:43;;;;;;;7.07;1.90;;;;;;;;;;4992605;28;20069;-77
2024/02/07 08:49:10;;;;;;;14.57;2.20;;;;;;;;;;4984334;28;20058;-77
2024/02/07 08:51:37;;;;;;;9.13;1.75;;;;;;;;;;4972551;28;20109;-75
2024/02/07 08:54:05;;;;;;;11.13;2.37;;;;;;;;;;5011673;28;20048;-73
2024/02/07 08:56:31;;;;;;;7.00;2.20;;;;;;;;;;5004895;28;20100;-73
2024/02/07 08:58:58;;;;;;;7.05;1.63;;;;;;;;;;4998116;28;20103;-73
2024/02/07 09:01:24;;;;;;;10.77;2.67;;;;;;;;;;5007826;28;20050;-74
2024/02/07 09:03:51;;;;;;;10.13;1.67;;;;;;;;;;5001888;28;20046;-73
2024/02/07 09:06:18;;;;;;;12.00;2.42;;;;;;;;;;5004643;28;20104;-74
2024/02/07 09:08:45;;;;;;;8.77;2.33;;;;;;;;;;4993593;28;20146;-74
2024/02/07 09:11:11;;;;;;;16.40;2.42;;;;;;;;;;4994661;28;20128;-73
2024/02/07 09:13:38;;;;;;;15.10;2.20;;;;;;;;;;5005704;28;20452;-73
2024/02/07 09:16:04;;;;;;;7.85;2.40;;;;;;;;;;5006286;28;20050;-73
2024/02/07 09:18:34;;;;;;;8.00;2.15;;;;;;;;;;4985543;28;20054;-73
2024/02/07 09:21:00;;;;;;;7.60;2.15;;;;;;;;;;5005259;28;20141;-73
2024/02/07 09:23:27;;;;;;;11.88;2.63;;;;;;;;;;5008819;28;20077;-73
2024/02/07 09:25:53;;;;;;;6.38;1.85;;;;;;;;;;4991382;28;20069;-73
2024/02/07 09:28:20;;;;;;;12.45;2.75;;;;;;;;;;5012632;28;20058;-73
2024/02/07 09:30:47;;;;;;;10.65;2.38;;;;;;;;;;5009838;28;20050;-73
2024/02/07 09:33:14;;;;;;;7.00;2.05;;;;;;;;;;4995590;28;20062;-72
2024/02/07 09:35:41;;;;;;;16.23;3.25;;;;;;;;;;5001894;28;20050;-72
2024/02/07 09:38:08;;;;;;;10.88;2.70;;;;;;;;;;5006745;28;20062;-72
2024/02/07 09:40:34;;;;;;;8.85;2.78;;;;;;;;;;4992253;28;20450;-72
2024/02/07 09:43:01;;;;;;;12.15;2.75;;;;;;;;;;5002859;28;20047;-72
2024/02/07 09:45:31;;;;;;;7.53;2.22;;;;;;;;;;4994112;28;20076;-72
2024/02/07 09:47:57;;;;;;;8.70;2.25;;;;;;;;;;5006508;28;20073;-73
2024/02/07 09:50:24;;;;;;;10.63;2.47;;;;;;;;;;4990003;28;20060;-73
2024/02/07 09:52:51;;;;;;;10.43;2.20;;;;;;;;;;4981121;28;20096;-73
2024/02/07 09:55:18;;;;;;;14.98;2.47;;;;;;;;;;4991002;28;20049;-72
2024/02/07 09:57:46;;;;;;;9.80;2.08;;;;;;;;;;5001676;28;20049;-72
2024/02/07 10:00:12;;;;;;;13.98;2.45;;;;;;;;;;5006520;28;20156;-73
2024/02/07 10:02:41;;;;;;;11.35;2.78;;;;;;;;;;4978520;28;20058;-74
2024/02/07 10:05:10;;;;;;;7.70;2.13;;;;;;;;;;4993070;28;20045;-73
2024/02/07 10:07:38;;;;;;;14.15;2.45;;;;;;;;;;4988977;28;20050;-74
2024/02/07 10:10:07;;;;;;;10.05;2.72;;;;;;;;;;4983005;28;20484;-73
2024/02/07 10:12:34;;;;;;;12.25;2.78;;;;;;;;;;4993377;28;20459;-73
2024/02/07 10:15:05;;;;;;;11.98;2.17;;;;;;;;;;4997649;28;20049;-73
2024/02/07 10:17:32;;;;;;;10.07;2.25;;;;;;;;;;4998903;28;20058;-72
2024/02/07 10:19:59;;;;;;;12.23;2.88;;;;;;;;;;4993695;28;20058;-72
2024/02/07 10:22:25;;;;;;;15.77;2.72;;;;;;;;;;5012279;28;20402;-72
2024/02/07 10:24:52;;;;;;;14.73;2.50;;;;;;;;;;4981228;28;20053;-72
2024/02/07 10:27:19;;;;;;;13.05;2.88;;;;;;;;;;4989136;28;20112;-72
2024/02/07 10:29:46;;;;;;;10.93;2.60;;;;;;;;;;4991566;28;20049;-72
2024/02/07 10:32:17;;;;;;;9.35;2.58;;;;;;;;;;5009235;28;20054;-72
2024/02/07 10:34:50;;;;;;;12.98;2.55;;;;;;;;;;5008274;28;20116;-72
2024/02/07 10:37:22;;;;;;;9.77;2.33;;;;;;;;;;5010253;28;20100;-72
2024/02/07 10:39:49;;;;;;;13.52;2.60;;;;;;;;;;5011184;28;20050;-72
2024/02/07 10:42:17;;;;;;;19.58;3.67;;;;;;;;;;5007370;28;20065;-73
2024/02/07 10:44:43;;;;;;;17.02;3.00;;;;;;;;;;4993756;28;20111;-72
2024/02/07 10:47:10;;;;;;;11.18;2.60;;;;;;;;;;4988336;28;20140;-72
2024/02/07 10:49:38;;;;;;;16.58;3.00;;;;;;;;;;5008604;28;20058;-74
2024/02/07 10:52:09;;;;;;;11.13;2.28;;;;;;;;;;4993333;28;20073;-72
2024/02/07 10:54:38;;;;;;;13.10;2.50;;;;;;;;;;5008679;28;20073;-72
2024/02/07 10:57:05;;;;;;;16.73;3.15;;;;;;;;;;5000125;28;20551;-72
2024/02/07 10:59:32;;;;;;;14.45;3.38;;;;;;;;;;4990635;28;20056;-72
2024/02/07 11:01:59;;;;;;;12.75;2.83;;;;;;;;;;4991265;28;20061;-72
2024/02/07 11:04:26;;;;;;;15.15;2.20;;;;;;;;;;4980520;28;20086;-72
2024/02/07 11:06:56;;;;;;;14.10;2.08;;;;;;;;;;4999010;28;20480;-72
2024/02/07 11:09:22;;;;;;;10.90;2.35;;;;;;;;;;4993166;28;20054;-72
2024/02/07 11:11:49;;;;;;;14.00;2.83;;;;;;;;;;4990067;28;20538;-76
2024/02/07 11:14:17;;;;;;;15.77;2.75;;;;;;;;;;4993641;28;20101;-76
2024/02/07 11:16:43;;;;;;;16.05;2.17;;;;;;;;;;4975800;28;20152;-75
2024/02/07 11:19:10;;;;;;;19.48;2.97;;;;;;;;;;4983939;28;20057;-76
2024/02/07 11:21:38;;;;;;;15.43;2.53;;;;;;;;;;5004781;28;20218;-76
2024/02/07 11:24:06;;;;;;;14.30;2.38;;;;;;;;;;4998573;28;20127;-76
2024/02/07 11:26:33;;;;;;;18.67;2.97;;;;;;;;;;4994071;28;20050;-76
2024/02/07 11:29:01;;;;;;;13.85;2.42;;;;;;;;;;4978980;28;20077;-76
2024/02/07 11:31:32;;;;;;;11.20;2.17;;;;;;;;;;5000705;28;20073;-76
2024/02/07 11:33:59;;;;;;;15.13;3.03;;;;;;;;;;5000488;28;20054;-75
2024/02/07 11:36:27;;;;;;;13.88;3.15;;;;;;;;;;4986174;28;20053;-75
2024/02/07 11:38:54;;;;;;;16.77;2.65;;;;;;;;;;4978514;28;20046;-76
2024/02/07 11:41:20;;;;;;;21.98;2.40;;;;;;;;;;4999899;28;20060;-75
2024/02/07 11:43:49;;;;;;;14.95;2.45;;;;;;;;;;4998212;28;20208;-75
2024/02/07 11:46:16;;;;;;;17.85;2.38;;;;;;;;;;4985979;28;20628;-75
2024/02/07 11:48:42;;;;;;;21.67;3.38;;;;;;;;;;5013133;28;20119;-76
2024/02/07 11:51:09;;;;;;;16.67;2.35;;;;;;;;;;4987848;28;20050;-77
2024/02/07 11:53:39;;;;;;;12.43;1.77;;;;;;;;;;4997398;28;20073;-77
2024/02/07 11:56:10;;;;;;;21.15;2.60;;;;;;;;;;4985181;28;20092;-77
2024/02/07 11:58:36;;;;;;;13.02;2.10;;;;;;;;;;4994840;28;20046;-75
2024/02/07 12:01:07;;;;;;;11.68;1.80;;;;;;;;;;5008239;28;20041;-77
2024/02/07 12:03:33;;;;;;;14.57;2.05;;;;;;;;;;5005592;28;20038;-77
2024/02/07 12:06:00;;;;;;;14.82;1.98;;;;;;;;;;4996553;28;20054;-76
2024/02/07 12:08:26;;;;;;;18.17;2.40;;;;;;;;;;5004888;28;20038;-77
2024/02/07 12:10:53;;;;;;;16.52;1.80;;;;;;;;;;5003414;28;20085;-77
2024/02/07 12:13:19;;;;;;;14.20;2.50;;;;;;;;;;4991688;28;20748;-76
2024/02/07 12:15:46;;;;;;;15.00;2.20;;;;;;;;;;4997014;28;20914;-76
2024/02/07 12:18:12;;;;;;;14.02;1.80;;;;;;;;;;5001254;28;20466;-78
2024/02/07 12:20:39;;;;;;;17.90;1.98;;;;;;;;;;4994098;28;20057;-76
2024/02/07 12:23:06;;;;;;;12.80;2.45;;;;;;;;;;4986526;28;20050;-74
2024/02/07 12:25:32;;;;;;;16.70;1.83;;;;;;;;;;5010509;28;20137;-73
2024/02/07 12:28:14;;;;;;;14.60;2.25;;;;;;;;;;4997901;28;20152;-73
2024/02/07 12:30:42;;;;;;;12.27;2.05;;;;;;;;;;4995005;28;20045;-73
2024/02/07 12:33:09;;;;;;;12.97;1.87;;;;;;;;;;5011359;28;20092;-74
2024/02/07 12:35:47;;;;;;;19.17;2.15;;;;;;;;;;4991448;28;20046;-73
2024/02/07 12:38:13;;;;;;;14.10;1.90;;;;;;;;;;4995464;28;20101;-72
2024/02/07 12:40:45;;;;;;;12.15;2.40;;;;;;;;;;4992945;28;20045;-72
2024/02/07 12:43:11;;;;;;;;;;;;;;;;;;4995690;28;20546;-73
2024/02/07 12:45:38;;;;;;;10.13;1.63;;;;;;;;;;5008615;28;19961;-73
2024/02/07 12:48:04;;;;;;;18.70;2.10;;;;;;;;;;4989656;28;20046;-73
2024/02/07 12:50:31;;;;;;;15.18;2.13;;;;;;;;;;5010056;28;20145;-72
2024/02/07 12:52:57;;;;;;;12.85;1.77;;;;;;;;;;4980773;28;20159;-73
2024/02/07 12:55:24;;;;;;;14.73;1.83;;;;;;;;;;5006449;28;20050;-72
2024/02/07 12:57:59;;;;;;;20.55;2.80;;;;;;;;;;4990759;28;20058;-73
2024/02/07 13:00:25;;;;;;;12.82;2.10;;;;;;;;;;5007061;28;20128;-72
2024/02/07 13:02:52;;;;;;;11.65;1.83;;;;;;;;;;5004478;28;20050;-72
2024/02/07 13:05:18;;;;;;;15.50;2.50;;;;;;;;;;5010081;28;20484;-71
2024/02/07 13:07:45;;;;;;;14.27;2.05;;;;;;;;;;5009741;28;20046;-72
2024/02/07 13:10:12;;;;;;;10.77;1.73;;;;;;;;;;5002208;28;20065;-72
2024/02/07 13:12:39;;;;;;;14.60;3.40;;;;;;;;;;5008932;28;20077;-73
2024/02/07 13:15:06;;;;;;;14.73;2.87;;;;;;;;;;5004979;28;20054;-72
2024/02/07 13:17:35;;;;;;;10.68;1.40;;;;;;;;;;4976007;28;20061;-72
2024/02/07 13:20:03;;;;;;;10.48;1.65;;;;;;;;;;5006572;28;20073;-72
2024/02/07 13:22:30;;;;;;;14.43;2.42;;;;;;;;;;5006500;28;20056;-72
2024/02/07 13:24:59;;;;;;;12.40;2.13;;;;;;;;;;5010963;28;20365;-72
2024/02/07 13:27:26;;;;;;;14.57;2.38;;;;;;;;;;4996150;28;20111;-72
2024/02/07 13:29:52;;;;;;;9.82;1.80;;;;;;;;;;4985179;28;20050;-72
2024/02/07 13:32:21;;;;;;;11.75;1.83;;;;;;;;;;5002010;28;20455;-70
2024/02/07 13:34:49;;;;;;;14.20;1.90;;;;;;;;;;5009425;28;20476;-72
2024/02/07 13:37:16;;;;;;;12.93;2.13;;;;;;;;;;5003538;28;20073;-71
2024/02/07 13:39:42;;;;;;;15.23;2.92;;;;;;;;;;5002099;28;20125;-72
2024/02/07 13:42:08;;;;;;;10.98;2.38;;;;;;;;;;5008413;28;20045;-72
2024/02/07 13:44:35;;;;;;;14.23;1.88;;;;;;;;;;4992986;28;20049;-72
2024/02/07 13:47:01;;;;;;;13.50;2.47;;;;;;;;;;5002025;28;20144;-72
2024/02/07 13:49:28;;;;;;;16.13;2.33;;;;;;;;;;5000756;28;20050;-73
2024/02/07 13:51:56;;;;;;;14.57;2.00;;;;;;;;;;4986050;28;20096;-73
2024/02/07 13:54:22;;;;;;;11.18;1.80;;;;;;;;;;5008793;28;20054;-73
2024/02/07 13:56:48;;;;;;;12.95;2.10;;;;;;;;;;4984008;28;20046;-73
2024/02/07 13:59:15;;;;;;;17.45;2.40;;;;;;;;;;4988081;28;20061;-73
2024/02/07 14:01:41;;;;;;;13.45;1.98;;;;;;;;;;5005224;28;20093;-72
2024/02/07 14:04:08;;;;;;;20.67;2.65;;;;;;;;;;4987216;28;20054;-72
2024/02/07 14:06:35;;;;;;;13.85;1.80;;;;;;;;;;5000751;28;20042;-71
2024/02/07 14:09:01;;;;;;;18.83;2.58;;;;;;;;;;5004741;28;20054;-73
2024/02/07 14:11:28;;;;;;;10.85;1.98;;;;;;;;;;4987464;28;20045;-74
2024/02/07 14:13:54;;;;;;;14.45;1.80;;;;;;;;;;5002235;28;20149;-72
2024/02/07 14:16:21;;;;;;;13.07;1.92;;;;;;;;;;4979275;28;20046;-72
2024/02/07 14:18:47;;;;;;;15.07;2.13;;;;;;;;;;5008377;28;20046;-73
2024/02/07 14:21:14;;;;;;;12.43;2.80;;;;;;;;;;5003757;28;20053;-73
2024/02/07 14:23:40;;;;;;;15.40;2.25;;;;;;;;;;4998179;28;20046;-74
2024/02/07 14:26:07;;;;;;;13.57;2.13;;;;;;;;;;4985337;28;20465;-72
2024/02/07 14:28:34;;;;;;;9.93;1.85;;;;;;;;;;4989807;28;20173;-72
2024/02/07 14:31:01;;;;;;;10.07;2.03;;;;;;;;;;5002657;28;20050;-73
2024/02/07 14:33:27;;;;;;;7.30;1.58;;;;;;;;;;5007541;28;20085;-72
2024/02/07 14:35:54;;;;;;;10.20;1.77;;;;;;;;;;4997003;28;20046;-72
2024/02/07 14:38:22;;;;;;;9.80;1.92;;;;;;;;;;5003694;28;20042;-73
2024/02/07 14:40:48;;;;;;;9.95;1.83;;;;;;;;;;4992250;28;20058;-72
2024/02/07 14:43:15;;;;;;;12.80;2.10;;;;;;;;;;4996474;28;20054;-73
2024/02/07 14:45:42;;;;;;;12.52;1.83;;;;;;;;;;4990735;28;20057;-72
2024/02/07 14:48:08;;;;;;;13.13;2.03;;;;;;;;;;4990757;28;20052;-73
2024/02/07 14:50:37;;;;;;;14.10;2.88;;;;;;;;;;5004121;28;20073;-72
2024/02/07 14:53:05;;;;;;;13.13;2.33;;;;;;;;;;4988293;28;20050;-73
2024/02/07 14:55:32;;;;;;;15.70;2.25;;;;;;;;;;4984617;28;20049;-73
2024/02/07 14:57:59;;;;;;;14.00;2.15;;;;;;;;;;5007966;28;20526;-73
2024/02/07 15:00:25;;;;;;;14.85;2.35;;;;;;;;;;4985946;28;20054;-72
2024/02/07 15:02:54;;;;;;;13.35;1.88;;;;;;;;;;4989717;28;20054;-72
2024/02/07 15:05:21;;;;;;;14.32;2.15;;;;;;;;;;5007565;28;20045;-72
2024/02/07 15:07:49;;;;;;;11.20;2.33;;;;;;;;;;5000729;28;20132;-72
2024/02/07 15:10:16;;;;;;;13.20;1.98;;;;;;;;;;4993683;28;20407;-72
2024/02/07 15:12:43;;;;;;;12.80;1.73;;;;;;;;;;5003279;28;20064;-72
2024/02/07 15:15:09;;;;;;;15.32;2.00;;;;;;;;;;4991857;28;20049;-71
2024/02/07 15:17:38;;;;;;;11.90;2.58;;;;;;;;;;4993535;28;20054;-71
2024/02/07 15:20:05;;;;;;;10.35;1.92;;;;;;;;;;4997153;28;20203;-73
2024/02/07 15:22:32;;;;;;;11.70;2.28;;;;;;;;;;5002137;28;20056;-74
2024/02/07 15:24:58;;;;;;;20.05;4.25;;;;;;;;;;4974438;28;20052;-73
2024/02/07 15:27:25;;;;;;;13.65;3.47;;;;;;;;;;5007890;28;20487;-73
2024/02/07 15:29:51;;;;;;;14.60;2.70;;;;;;;;;;4995594;28;20047;-73
2024/02/07 15:32:17;;;;;;;14.50;2.40;;;;;;;;;;5002307;28;20092;-73
2024/02/07 15:34:44;;;;;;;20.13;2.47;;;;;;;;;;4998898;28;20057;-73
2024/02/07 15:37:11;;;;;;;14.55;1.92;;;;;;;;;;4969011;28;20057;-73
2024/02/07 15:39:37;;;;;;;9.85;2.15;;;;;;;;;;5008657;28;20086;-74
2024/02/07 15:42:08;;;;;;;15.25;2.13;;;;;;;;;;5005503;28;20054;-74
2024/02/07 15:44:35;;;;;;;10.98;1.80;;;;;;;;;;5011225;28;20057;-73